createdAt,value
2019-03-22T00:00:32.027Z,36.40
2019-03-22T00:03:01.912Z,47.40
2019-03-22T00:05:31.483Z,36.23
2019-03-22T00:08:01.428Z,42.73
2019-03-22T00:10:30.911Z,34.90
2019-03-22T00:13:00.411Z,39.83
2019-03-22T00:15:29.911Z,36.03
2019-03-22T00:17:59.403Z,39.53
2019-03-22T00:20:28.926Z,34.97
2019-03-22T00:22:58.664Z,34.60
2019-03-22T00:25:28.158Z,30.33
2019-03-22T00:27:57.692Z,31.33
2019-03-22T00:30:27.392Z,32.23
2019-03-22T00:32:56.882Z,35.93
2019-03-22T00:35:26.724Z,36.60
2019-03-22T00:37:56.543Z,39.07
2019-03-22T00:40:26.031Z,34.10
2019-03-22T00:42:55.504Z,41.23
2019-03-22T00:45:25.029Z,36.33
2019-03-22T00:47:54.501Z,31.43
2019-03-22T00:50:24.579Z,32.83
2019-03-22T00:52:54.299Z,34.80
2019-03-22T00:55:23.857Z,29.93
2019-03-22T00:57:53.431Z,30.67
2019-03-22T01:00:22.919Z,49.50
2019-03-22T01:02:52.401Z,48.50
2019-03-22T01:05:21.967Z,46.57
2019-03-22T01:07:51.775Z,49.57
2019-03-22T01:10:21.314Z,43.90
2019-03-22T01:12:51.165Z,43.43
2019-03-22T01:15:21.006Z,54.97
2019-03-22T01:17:50.463Z,68.17
2019-03-22T01:20:20.228Z,48.20
2019-03-22T01:22:50.007Z,54.80
2019-03-22T01:25:19.493Z,55.97
2019-03-22T01:27:48.962Z,40.10
2019-03-22T01:30:18.522Z,59.73
2019-03-22T01:32:48.131Z,39.30
2019-03-22T01:35:17.715Z,42.23
2019-03-22T01:37:47.294Z,44.60
2019-03-22T01:40:17.899Z,49.97
2019-03-22T01:42:47.363Z,47.87
2019-03-22T01:45:17.702Z,37.33
2019-03-22T01:47:47.091Z,36.33
2019-03-22T01:50:17.251Z,33.63
2019-03-22T01:52:46.716Z,45.70
2019-03-22T01:55:16.771Z,34.70
2019-03-22T01:57:53.136Z,34.97
2019-03-22T02:00:17.855Z,41.83
2019-03-22T02:02:47.273Z,38.30
2019-03-22T02:05:17.275Z,44.70
2019-03-22T02:07:47.143Z,37.17
2019-03-22T02:10:17.501Z,38.50
2019-03-22T02:12:47.040Z,34.30
2019-03-22T02:15:16.791Z,54.97
2019-03-22T02:17:46.567Z,46.83
2019-03-22T02:20:16.308Z,44.80
2019-03-22T02:22:45.834Z,48.03
2019-03-22T02:25:15.492Z,47.90
2019-03-22T02:27:45.114Z,41.20
2019-03-22T02:30:15.328Z,64.47
2019-03-22T02:32:44.911Z,53.87
2019-03-22T02:35:27.559Z,47.03
2019-03-22T02:37:45.923Z,49.87
2019-03-22T02:40:15.650Z,52.30
2019-03-22T02:42:45.448Z,42.73
2019-03-22T02:45:15.718Z,48.20
2019-03-22T02:47:45.261Z,68.57
2019-03-22T02:50:19.859Z,39.20
2019-03-22T02:52:46.243Z,38.63
2019-03-22T02:55:15.820Z,39.07
2019-03-22T02:57:45.351Z,38.97
2019-03-22T03:00:15.716Z,33.83
2019-03-22T03:02:45.305Z,55.30
2019-03-22T03:05:15.297Z,35.53
2019-03-22T03:07:44.849Z,35.77
2019-03-22T03:10:14.747Z,36.20
2019-03-22T03:12:44.391Z,35.40
2019-03-22T03:15:14.170Z,59.97
2019-03-22T03:17:43.661Z,44.97
2019-03-22T03:20:13.853Z,35.60
2019-03-22T03:22:43.377Z,35.53
2019-03-22T03:25:13.399Z,35.40
2019-03-22T03:27:43.271Z,33.17
2019-03-22T03:30:15.361Z,35.43
2019-03-22T03:32:44.997Z,38.20
2019-03-22T03:35:14.742Z,34.23
2019-03-22T03:37:44.301Z,38.93
2019-03-22T03:40:14.353Z,38.47
2019-03-22T03:42:43.869Z,37.13
2019-03-22T03:45:35.094Z,38.13
2019-03-22T03:48:05.847Z,35.63
2019-03-22T03:50:35.631Z,40.50
2019-03-22T03:53:06.665Z,39.80
2019-03-22T03:55:37.002Z,36.23
2019-03-22T03:58:06.785Z,36.87
2019-03-22T04:00:36.702Z,37.20
2019-03-22T04:03:06.357Z,38.03
2019-03-22T04:05:35.900Z,37.27
2019-03-22T04:08:05.747Z,36.50
2019-03-22T04:10:35.246Z,36.77
2019-03-22T04:13:05.125Z,41.77
2019-03-22T04:15:34.773Z,38.80
2019-03-22T04:18:04.438Z,38.10
2019-03-22T04:20:33.906Z,38.33
2019-03-22T04:23:03.572Z,37.03
2019-03-22T04:25:33.370Z,34.67
2019-03-22T04:28:02.923Z,32.27
2019-03-22T04:30:32.388Z,33.37
2019-03-22T04:33:02.035Z,36.30
2019-03-22T04:35:31.519Z,33.30
2019-03-22T04:38:01.095Z,34.83
2019-03-22T04:40:30.832Z,33.20
2019-03-22T04:43:00.582Z,33.60
2019-03-22T04:45:31.938Z,33.53
2019-03-22T04:48:06.206Z,33.57
2019-03-22T04:50:40.209Z,31.23
2019-03-22T04:53:13.224Z,34.27
2019-03-22T04:55:46.205Z,33.70
2019-03-22T04:58:16.880Z,33.80
2019-03-22T05:00:48.244Z,33.77
2019-03-22T05:03:19.327Z,34.67
2019-03-22T05:05:51.357Z,35.00
2019-03-22T05:08:23.362Z,33.73
2019-03-22T05:10:54.522Z,34.17
2019-03-22T05:13:25.703Z,31.80
2019-03-22T05:15:56.219Z,32.03
2019-03-22T05:18:26.754Z,30.43
2019-03-22T05:20:58.173Z,32.30
2019-03-22T05:23:28.741Z,33.67
2019-03-22T05:26:01.647Z,31.30
2019-03-22T05:28:32.497Z,33.30
2019-03-22T05:31:31.546Z,32.63
2019-03-22T05:34:01.300Z,32.20
2019-03-22T05:36:32.179Z,30.97
2019-03-22T05:39:01.701Z,30.97
2019-03-22T05:41:31.176Z,30.70
2019-03-22T05:44:01.003Z,30.77
2019-03-22T05:46:30.725Z,28.70
2019-03-22T05:49:00.214Z,29.67
2019-03-22T05:51:29.911Z,29.77
2019-03-22T05:53:59.718Z,28.73
2019-03-22T05:56:29.172Z,29.00
2019-03-22T05:58:59.026Z,29.27
2019-03-22T06:01:28.771Z,29.30
2019-03-22T06:03:58.341Z,29.77
2019-03-22T06:06:27.983Z,30.93
2019-03-22T06:08:57.561Z,31.07
2019-03-22T06:11:27.019Z,30.80
2019-03-22T06:13:56.489Z,35.13
2019-03-22T06:16:25.971Z,30.53
2019-03-22T06:18:55.483Z,32.00
2019-03-22T06:21:24.969Z,32.13
2019-03-22T06:23:54.373Z,32.87
2019-03-22T06:26:24.014Z,31.53
2019-03-22T06:28:53.538Z,30.80
2019-03-22T06:31:22.999Z,28.07
2019-03-22T06:33:52.535Z,31.43
2019-03-22T06:36:24.158Z,30.97
2019-03-22T06:38:53.723Z,31.23
2019-03-22T06:41:23.209Z,30.00
2019-03-22T06:43:52.682Z,29.03
2019-03-22T06:46:22.273Z,31.03
2019-03-22T06:48:51.810Z,32.23
2019-03-22T06:51:21.294Z,29.30
2019-03-22T06:53:50.762Z,30.70
2019-03-22T06:56:20.482Z,30.07
2019-03-22T06:58:49.972Z,31.93
2019-03-22T07:01:19.723Z,28.47
2019-03-22T07:03:49.170Z,27.13
2019-03-22T07:06:18.730Z,30.87
2019-03-22T07:08:48.193Z,36.43
2019-03-22T07:11:17.618Z,32.07
2019-03-22T07:13:47.447Z,31.50
2019-03-22T07:16:16.926Z,34.80
2019-03-22T07:18:46.384Z,36.13
2019-03-22T07:21:15.866Z,33.93
2019-03-22T07:23:45.366Z,39.87
2019-03-22T07:26:14.843Z,34.23
2019-03-22T07:28:44.397Z,36.00
2019-03-22T07:31:14.135Z,35.67
2019-03-22T07:33:43.657Z,33.33
2019-03-22T07:36:14.044Z,38.43
2019-03-22T07:38:43.639Z,30.73
2019-03-22T07:41:13.162Z,33.57
2019-03-22T07:43:42.613Z,32.77
2019-03-22T07:46:12.092Z,31.73
2019-03-22T07:48:41.936Z,37.77
2019-03-22T07:51:11.426Z,35.03
2019-03-22T07:53:40.906Z,41.63
2019-03-22T07:56:10.467Z,48.77
2019-03-22T07:58:39.970Z,39.37
2019-03-22T08:01:09.579Z,37.00
2019-03-22T08:03:39.143Z,39.37
2019-03-22T08:06:08.644Z,38.63
2019-03-22T08:08:38.529Z,38.47
2019-03-22T08:11:08.090Z,33.80
2019-03-22T08:13:38.307Z,36.67
2019-03-22T08:16:07.971Z,35.10
2019-03-22T08:18:38.086Z,38.57
2019-03-22T08:21:07.550Z,42.03
2019-03-22T08:23:37.635Z,42.23
2019-03-22T08:26:07.149Z,42.13
2019-03-22T08:28:37.009Z,43.53
2019-03-22T08:31:06.581Z,48.17
2019-03-22T08:33:36.033Z,46.07
2019-03-22T08:36:05.543Z,67.17
2019-03-22T08:38:35.035Z,81.80
2019-03-22T08:41:04.682Z,89.90
2019-03-22T08:43:34.189Z,74.27
2019-03-22T08:46:03.816Z,78.50
2019-03-22T08:48:33.365Z,72.43
2019-03-22T08:51:03.170Z,79.63
2019-03-22T08:53:32.645Z,69.23
2019-03-22T08:56:02.166Z,62.37
2019-03-22T08:58:31.606Z,62.13
2019-03-22T09:01:01.030Z,61.77
2019-03-22T09:03:30.587Z,55.87
2019-03-22T09:06:00.127Z,55.90
2019-03-22T09:08:29.600Z,58.10
2019-03-22T09:10:59.079Z,54.43
2019-03-22T09:13:28.574Z,57.23
2019-03-22T09:15:58.088Z,55.47
2019-03-22T09:18:27.618Z,52.87
2019-03-22T09:20:57.085Z,45.83
2019-03-22T09:23:26.565Z,52.47
2019-03-22T09:25:56.332Z,52.37
2019-03-22T09:28:25.877Z,59.20
2019-03-22T09:30:55.326Z,61.97
2019-03-22T09:33:24.825Z,57.80
2019-03-22T09:35:54.287Z,59.53
2019-03-22T09:38:23.765Z,62.47
2019-03-22T09:40:53.183Z,60.33
2019-03-22T09:43:23.050Z,63.60
2019-03-22T09:45:52.686Z,63.37
2019-03-22T09:48:22.189Z,65.43
2019-03-22T09:50:51.643Z,57.97
2019-03-22T09:53:21.143Z,58.73
2019-03-22T09:55:50.612Z,65.33
2019-03-22T09:58:20.111Z,64.53
2019-03-22T10:00:49.830Z,59.73
2019-03-22T10:03:19.303Z,64.47
2019-03-22T10:05:48.813Z,64.57
2019-03-22T10:08:18.585Z,61.93
2019-03-22T10:10:47.998Z,57.10
2019-03-22T10:13:17.519Z,64.80
2019-03-22T10:15:46.998Z,62.63
2019-03-22T10:18:16.535Z,69.23
2019-03-22T10:20:45.989Z,65.00
2019-03-22T10:23:15.824Z,62.80
2019-03-22T10:25:45.259Z,62.47
2019-03-22T10:28:14.713Z,60.43
2019-03-22T10:30:44.280Z,61.27
2019-03-22T10:33:22.607Z,57.23
2019-03-22T10:35:45.226Z,57.83
2019-03-22T10:38:16.397Z,58.87
2019-03-22T10:40:46.215Z,60.37
2019-03-22T10:43:15.716Z,60.07
2019-03-22T10:45:45.238Z,57.60
2019-03-22T10:48:14.750Z,56.00
2019-03-22T10:50:44.186Z,51.23
2019-03-22T10:53:13.926Z,56.57
2019-03-22T10:55:43.375Z,51.50
2019-03-22T10:58:20.967Z,53.30
2019-03-22T11:00:44.242Z,50.83
2019-03-22T11:03:13.818Z,53.80
2019-03-22T11:05:43.424Z,52.33
2019-03-22T11:08:13.221Z,52.30
2019-03-22T11:10:42.967Z,48.93
2019-03-22T11:13:13.054Z,49.83
2019-03-22T11:15:48.390Z,53.00
2019-03-22T11:18:14.165Z,50.67
2019-03-22T11:20:45.623Z,50.10
2019-03-22T11:23:14.683Z,50.60
2019-03-22T11:25:44.186Z,51.90
2019-03-22T11:28:13.633Z,53.33
2019-03-22T11:30:43.706Z,52.10
2019-03-22T11:33:13.450Z,49.00
2019-03-22T11:35:43.321Z,52.87
2019-03-22T11:38:13.023Z,51.07
2019-03-22T11:40:42.733Z,45.40
2019-03-22T11:43:12.201Z,50.77
2019-03-22T11:45:41.699Z,49.50
2019-03-22T11:48:11.238Z,51.27
2019-03-22T11:50:40.819Z,51.47
2019-03-22T11:53:11.097Z,48.10
2019-03-22T11:55:40.609Z,53.67
2019-03-22T11:58:10.303Z,51.30
2019-03-22T12:00:39.946Z,54.93
2019-03-22T12:03:09.805Z,54.77
2019-03-22T12:05:40.628Z,50.80
2019-03-22T12:08:10.505Z,51.57
2019-03-22T12:10:39.903Z,52.20
2019-03-22T12:13:09.361Z,54.87
2019-03-22T12:15:39.497Z,54.67
2019-03-22T12:18:08.945Z,61.17
2019-03-22T12:20:38.360Z,57.90
2019-03-22T12:23:08.402Z,53.93
2019-03-22T12:25:37.807Z,53.57
2019-03-22T12:28:08.107Z,55.03
2019-03-22T12:30:37.716Z,52.20
2019-03-22T12:33:07.308Z,53.73
2019-03-22T12:35:36.928Z,51.57
2019-03-22T12:38:06.489Z,51.83
2019-03-22T12:40:36.158Z,49.43
2019-03-22T12:43:06.023Z,52.23
2019-03-22T12:45:35.986Z,53.77
2019-03-22T12:48:05.943Z,51.73
2019-03-22T12:50:35.566Z,53.83
2019-03-22T12:53:05.037Z,50.13
2019-03-22T12:55:34.876Z,51.50
2019-03-22T12:58:04.985Z,48.17
2019-03-22T13:00:34.981Z,49.63
2019-03-22T13:03:06.578Z,54.37
2019-03-22T13:05:36.422Z,50.17
2019-03-22T13:08:06.066Z,49.63
2019-03-22T13:10:35.598Z,51.43
2019-03-22T13:13:05.867Z,50.00
2019-03-22T13:15:35.405Z,47.67
2019-03-22T13:18:05.041Z,48.30
2019-03-22T13:20:34.522Z,50.70
2019-03-22T13:23:04.072Z,49.50
2019-03-22T13:25:33.721Z,48.27
2019-03-22T13:28:03.531Z,50.87
2019-03-22T13:30:35.056Z,54.37
2019-03-22T13:33:05.545Z,52.87
2019-03-22T13:35:35.176Z,49.67
2019-03-22T13:38:04.903Z,55.50
2019-03-22T13:40:34.514Z,50.93
2019-03-22T13:43:04.049Z,45.60
2019-03-22T13:45:33.561Z,52.10
2019-03-22T13:48:03.437Z,47.80
2019-03-22T13:50:32.844Z,50.40
2019-03-22T13:53:02.239Z,48.40
2019-03-22T13:55:31.713Z,47.63
2019-03-22T13:58:01.170Z,48.33
2019-03-22T14:00:30.629Z,48.27
2019-03-22T14:03:02.812Z,46.07
2019-03-22T14:05:31.211Z,49.23
2019-03-22T14:08:01.028Z,48.30
2019-03-22T14:10:36.569Z,53.47
2019-03-22T14:13:07.262Z,55.33
2019-03-22T14:15:36.869Z,55.13
2019-03-22T14:18:06.695Z,54.07
2019-03-22T14:20:36.146Z,49.77
2019-03-22T14:23:05.896Z,51.83
2019-03-22T14:25:35.427Z,55.27
2019-03-22T14:28:05.058Z,50.17
2019-03-22T14:30:34.543Z,53.70
2019-03-22T14:33:12.899Z,54.60
2019-03-22T14:35:35.269Z,51.63
2019-03-22T14:38:04.819Z,53.27
2019-03-22T14:40:34.389Z,53.20
2019-03-22T14:43:03.959Z,59.23
2019-03-22T14:45:33.511Z,55.07
2019-03-22T14:48:03.275Z,52.67
2019-03-22T14:50:33.020Z,57.13
2019-03-22T14:53:02.507Z,52.03
2019-03-22T14:55:32.083Z,58.03
2019-03-22T14:58:01.587Z,56.63
2019-03-22T15:00:31.495Z,56.53
2019-03-22T15:03:01.068Z,52.37
2019-03-22T15:05:30.779Z,58.00
2019-03-22T15:08:00.253Z,55.73
2019-03-22T15:10:29.657Z,53.90
2019-03-22T15:12:59.483Z,53.27
2019-03-22T15:15:49.701Z,52.37
2019-03-22T15:18:47.466Z,56.90
2019-03-22T15:21:25.426Z,55.03
2019-03-22T15:24:16.210Z,55.50
2019-03-22T15:27:07.543Z,55.70
2019-03-22T15:29:56.126Z,57.77
2019-03-22T15:32:44.932Z,51.20
2019-03-22T15:35:45.607Z,51.50
2019-03-22T15:38:34.717Z,47.07
2019-03-22T15:41:04.812Z,53.67
2019-03-22T15:43:34.373Z,55.27
2019-03-22T15:46:04.166Z,59.50
2019-03-22T15:48:33.577Z,48.33
2019-03-22T15:51:03.075Z,49.20
2019-03-22T15:53:32.512Z,49.13
2019-03-22T15:56:02.679Z,49.77
2019-03-22T15:58:32.153Z,48.17
2019-03-22T16:01:01.795Z,44.77
2019-03-22T16:03:32.530Z,44.20
2019-03-22T16:06:02.098Z,45.93
2019-03-22T16:08:31.646Z,46.20
2019-03-22T16:11:01.430Z,40.97
2019-03-22T16:13:30.899Z,46.17
2019-03-22T16:16:00.427Z,42.93
2019-03-22T16:18:29.928Z,46.50
2019-03-22T16:21:00.249Z,47.30
2019-03-22T16:23:29.962Z,44.53
2019-03-22T16:25:59.683Z,45.03
2019-03-22T16:28:29.199Z,42.57
2019-03-22T16:30:58.721Z,48.43
2019-03-22T16:33:28.529Z,45.13
2019-03-22T16:35:58.426Z,42.90
2019-03-22T16:38:28.551Z,45.27
2019-03-22T16:40:58.018Z,50.73
2019-03-22T16:43:27.748Z,47.37
2019-03-22T16:45:57.343Z,45.33
2019-03-22T16:48:26.964Z,46.67
2019-03-22T16:50:56.807Z,47.10
2019-03-22T16:53:26.363Z,45.33
2019-03-22T16:55:58.398Z,45.00
2019-03-22T16:58:28.141Z,46.00
2019-03-22T17:00:57.597Z,46.90
2019-03-22T17:03:27.081Z,48.40
2019-03-22T17:05:56.748Z,51.10
2019-03-22T17:08:26.825Z,45.87
2019-03-22T17:10:56.305Z,49.47
2019-03-22T17:13:25.845Z,51.50
2019-03-22T17:15:55.666Z,46.80
2019-03-22T17:18:25.123Z,47.63
2019-03-22T17:20:54.605Z,46.27
2019-03-22T17:23:23.981Z,47.70
2019-03-22T17:25:53.465Z,48.00
2019-03-22T17:28:22.946Z,47.37
2019-03-22T17:30:52.990Z,49.80
2019-03-22T17:33:22.450Z,48.80
2019-03-22T17:35:52.003Z,50.27
2019-03-22T17:38:21.453Z,52.83
2019-03-22T17:40:50.992Z,51.90
2019-03-22T17:43:20.560Z,50.27
2019-03-22T17:45:50.042Z,49.60
2019-03-22T17:48:19.443Z,51.67
2019-03-22T17:50:48.974Z,51.77
2019-03-22T17:53:18.942Z,52.13
2019-03-22T17:55:48.677Z,52.23
2019-03-22T17:58:18.427Z,46.67
2019-03-22T18:00:48.387Z,45.53
2019-03-22T18:03:17.862Z,52.10
2019-03-22T18:05:47.710Z,59.43
2019-03-22T18:08:17.104Z,52.97
2019-03-22T18:10:46.656Z,56.47
2019-03-22T18:13:16.121Z,52.00
2019-03-22T18:15:46.121Z,55.10
2019-03-22T18:18:15.515Z,50.77
2019-03-22T18:20:45.481Z,45.03
2019-03-22T18:23:14.945Z,55.93
2019-03-22T18:25:44.343Z,57.03
2019-03-22T18:28:13.803Z,54.47
2019-03-22T18:30:43.697Z,58.27
2019-03-22T18:33:13.253Z,56.50
2019-03-22T18:35:42.658Z,55.57
2019-03-22T18:38:12.476Z,59.23
2019-03-22T18:40:41.978Z,64.47
2019-03-22T18:43:11.436Z,61.50
2019-03-22T18:45:41.255Z,61.20
2019-03-22T18:48:10.729Z,58.27
2019-03-22T18:50:40.429Z,61.53
2019-03-22T18:53:09.909Z,59.93
2019-03-22T18:55:39.397Z,57.87
2019-03-22T18:58:09.173Z,58.83
2019-03-22T19:00:38.984Z,64.03
2019-03-22T19:03:08.461Z,64.57
2019-03-22T19:05:37.910Z,60.97
2019-03-22T19:08:07.337Z,60.97
2019-03-22T19:10:37.549Z,60.47
2019-03-22T19:13:07.816Z,58.63
2019-03-22T19:15:38.505Z,56.80
2019-03-22T19:18:07.993Z,57.63
2019-03-22T19:20:37.613Z,59.17
2019-03-22T19:23:07.033Z,60.77
2019-03-22T19:25:36.481Z,62.77
2019-03-22T19:28:06.249Z,62.20
2019-03-22T19:30:35.715Z,63.37
2019-03-22T19:33:05.566Z,71.17
2019-03-22T19:35:34.973Z,66.70
2019-03-22T19:38:04.543Z,65.87
2019-03-22T19:40:34.114Z,60.03
2019-03-22T19:43:03.711Z,62.37
2019-03-22T19:45:33.428Z,62.17
2019-03-22T19:48:02.908Z,57.67
2019-03-22T19:50:32.379Z,73.57
2019-03-22T19:53:01.927Z,73.80
2019-03-22T19:55:31.465Z,57.63
2019-03-22T19:58:01.254Z,56.73
2019-03-22T20:00:31.029Z,59.70
2019-03-22T20:03:00.507Z,60.47
2019-03-22T20:05:31.498Z,68.63
2019-03-22T20:08:01.196Z,65.60
2019-03-22T20:10:30.845Z,70.80
2019-03-22T20:13:00.392Z,71.50
2019-03-22T20:15:29.941Z,64.13
2019-03-22T20:17:59.570Z,72.83
2019-03-22T20:20:29.359Z,74.37
2019-03-22T20:22:58.915Z,62.20
2019-03-22T20:25:28.652Z,65.47
2019-03-22T20:27:58.435Z,67.67
2019-03-22T20:30:28.190Z,63.27
2019-03-22T20:32:57.937Z,65.90
2019-03-22T20:35:27.433Z,62.97
2019-03-22T20:37:57.257Z,68.20
2019-03-22T20:40:26.741Z,72.87
2019-03-22T20:42:56.173Z,66.23
2019-03-22T20:45:25.886Z,62.83
2019-03-22T20:47:55.367Z,61.50
2019-03-22T20:50:35.148Z,56.97
2019-03-22T20:52:56.012Z,53.37
2019-03-22T20:55:25.550Z,53.57
2019-03-22T20:57:55.282Z,54.57
2019-03-22T21:00:27.307Z,52.63
2019-03-22T21:02:56.060Z,48.70
2019-03-22T21:05:27.168Z,57.30
2019-03-22T21:07:56.669Z,60.60
2019-03-22T21:10:26.215Z,54.33
2019-03-22T21:12:55.681Z,52.00
2019-03-22T21:15:25.450Z,53.60
2019-03-22T21:17:55.116Z,52.00
2019-03-22T21:20:24.585Z,55.10
2019-03-22T21:22:54.050Z,50.13
2019-03-22T21:25:23.448Z,48.57
2019-03-22T21:27:53.261Z,47.67
2019-03-22T21:30:22.813Z,54.03
2019-03-22T21:32:52.526Z,48.70
2019-03-22T21:35:23.082Z,54.23
2019-03-22T21:37:52.870Z,53.97
2019-03-22T21:40:22.422Z,65.70
2019-03-22T21:42:51.891Z,47.03
2019-03-22T21:45:21.448Z,48.50
2019-03-22T21:47:50.855Z,53.07
2019-03-22T21:50:20.409Z,51.23
2019-03-22T21:52:49.974Z,56.13
2019-03-22T21:55:20.002Z,53.93
2019-03-22T21:57:49.754Z,53.83
2019-03-22T22:00:19.498Z,48.63
2019-03-22T22:02:49.102Z,51.37
2019-03-22T22:05:18.614Z,41.83
2019-03-22T22:07:48.080Z,51.53
2019-03-22T22:10:18.482Z,48.83
2019-03-22T22:12:47.955Z,51.27
2019-03-22T22:15:17.615Z,46.30
2019-03-22T22:17:47.110Z,52.53
2019-03-22T22:20:16.697Z,49.53
2019-03-22T22:22:46.419Z,49.10
2019-03-22T22:25:16.026Z,49.17
2019-03-22T22:27:45.485Z,46.97
2019-03-22T22:30:15.141Z,53.00
2019-03-22T22:32:44.597Z,50.07
2019-03-22T22:35:14.387Z,62.20
2019-03-22T22:37:43.921Z,53.20
2019-03-22T22:40:13.795Z,52.53
2019-03-22T22:42:43.280Z,54.20
2019-03-22T22:45:13.285Z,56.63
2019-03-22T22:47:42.742Z,57.77
2019-03-22T22:50:12.429Z,65.10
2019-03-22T22:52:42.745Z,57.57
2019-03-22T22:55:12.293Z,58.57
2019-03-22T22:57:41.830Z,58.23
2019-03-22T23:00:15.635Z,50.37
2019-03-22T23:02:45.442Z,51.30
2019-03-22T23:05:15.360Z,51.30
2019-03-22T23:07:44.865Z,63.57
2019-03-22T23:10:14.825Z,56.60
2019-03-22T23:12:44.278Z,55.50
2019-03-22T23:15:13.846Z,53.87
2019-03-22T23:17:43.388Z,49.87
2019-03-22T23:20:13.077Z,45.83
2019-03-22T23:22:42.570Z,36.27
2019-03-22T23:25:12.184Z,73.23
2019-03-22T23:27:41.788Z,108.13
2019-03-22T23:30:11.887Z,121.23
2019-03-22T23:32:41.490Z,258.37
2019-03-22T23:35:11.098Z,121.40
2019-03-22T23:37:40.681Z,43.17
2019-03-22T23:40:10.409Z,52.23
2019-03-22T23:42:39.986Z,46.20
2019-03-22T23:45:09.924Z,47.77
2019-03-22T23:47:39.416Z,40.80
2019-03-22T23:50:09.254Z,47.73
2019-03-22T23:52:40.567Z,42.73
2019-03-22T23:55:10.605Z,73.53
2019-03-22T23:57:40.077Z,31.97
